In Rescue
 
Open Full Screen Window  High Contrast Mode
Wind Gusting 00 knots
05
July 25, 2021 9:25 AM EDT
Weather Information
Wind Direction
  270 °
Wind Speed
  05 kt (6 mph)
Wind Gust
  00 kt (0 mph)
Altimeter
29.89 in
Visibility
10 SM
Temperature
23° C
73° F
Dewpoint
19° C
66° F
Humidity
78%
1hr Rain Fall
00.00 in.
24hr Rain Fall
00.76 in.
Sky Condition
Clear
VFR

METAR KIKW 251325Z AUTO 27005KT 10SM CLR 23/19 A2989 RMK AO2

FAA Disclaimer: The data displayed is for advisory purposes only and is not to be used for flight planning or operations.